createdAt,value
2019-05-26T00:04:08.864Z,99909.00
2019-05-26T00:06:36.724Z,99909.00
2019-05-26T00:09:23.149Z,99904.05
2019-05-26T00:12:15.704Z,99905.02
2019-05-26T00:22:52.338Z,99911.21
2019-05-26T00:25:38.741Z,99911.21
2019-05-26T00:28:25.178Z,99902.87
2019-05-26T00:31:11.844Z,99902.51
2019-05-26T00:36:31.212Z,99899.09
2019-05-26T00:38:58.965Z,99904.06
2019-05-26T00:44:18.998Z,99894.39
2019-05-26T00:46:46.731Z,99889.44
2019-05-26T00:54:52.579Z,99889.68
2019-05-26T01:05:12.244Z,99884.00
2019-05-26T01:08:05.198Z,99888.70
2019-05-26T01:13:02.475Z,99882.66
2019-05-26T01:18:35.425Z,99883.88
2019-05-26T01:21:03.334Z,99883.88
2019-05-26T01:23:31.099Z,99883.42
2019-05-26T01:25:58.969Z,99878.94
2019-05-26T01:28:26.630Z,99875.31
2019-05-26T01:30:54.504Z,99877.25
2019-05-26T01:33:40.878Z,99869.49
2019-05-26T01:36:08.570Z,99869.49
2019-05-26T01:38:55.034Z,99881.47
2019-05-26T01:41:22.794Z,99864.78
2019-05-26T01:44:09.548Z,99873.23
2019-05-26T01:49:10.284Z,99869.39
2019-05-26T01:54:25.040Z,99869.14
2019-05-26T01:56:52.941Z,99866.59
2019-05-26T02:05:04.164Z,99865.96
2019-05-26T02:18:16.224Z,99852.53
2019-05-26T02:20:44.038Z,99852.53
2019-05-26T02:23:13.247Z,99860.77
2019-05-26T02:28:13.727Z,99859.43
2019-05-26T02:30:41.495Z,99861.70
2019-05-26T02:33:28.202Z,99859.55
2019-05-26T02:35:55.958Z,99859.55
2019-05-26T02:38:26.299Z,99861.70
2019-05-26T02:40:53.348Z,99861.70
2019-05-26T02:43:22.630Z,99857.13
2019-05-26T02:45:50.371Z,99857.96
2019-05-26T02:48:18.157Z,99854.72
2019-05-26T02:50:45.851Z,99859.54
2019-05-26T02:53:13.597Z,99855.08
2019-05-26T02:55:41.356Z,99854.36
2019-05-26T02:58:27.724Z,99848.07
2019-05-26T03:00:55.452Z,99844.33
2019-05-26T03:03:41.823Z,99845.88
2019-05-26T03:06:09.539Z,99845.88
2019-05-26T03:08:55.928Z,99840.86
2019-05-26T03:11:42.359Z,99839.77
2019-05-26T03:14:10.003Z,99839.77
2019-05-26T03:16:56.430Z,99841.30
2019-05-26T03:19:42.889Z,99834.27
2019-05-26T03:22:10.568Z,99834.27
2019-05-26T03:24:56.969Z,99832.92
2019-05-26T03:27:24.793Z,99833.75
2019-05-26T03:30:12.509Z,99826.16
2019-05-26T03:32:58.935Z,99824.44
2019-05-26T03:35:26.985Z,99824.44
2019-05-26T03:38:13.459Z,99814.65
2019-05-26T03:40:59.879Z,99818.50
2019-05-26T03:43:27.619Z,99818.50
2019-05-26T03:45:55.400Z,99822.24
2019-05-26T03:48:42.202Z,99819.44
2019-05-26T03:51:09.988Z,99819.44
2019-05-26T03:53:39.391Z,99822.08
2019-05-26T03:56:25.827Z,99822.08
2019-05-26T03:58:53.966Z,99825.45
2019-05-26T04:04:13.635Z,99830.90
2019-05-26T04:07:00.359Z,99829.39
2019-05-26T04:09:39.758Z,99829.39
2019-05-26T04:11:57.297Z,99825.48
2019-05-26T04:14:43.963Z,99835.67
2019-05-26T04:17:13.638Z,99835.67
2019-05-26T04:19:41.313Z,99828.03
2019-05-26T04:22:27.763Z,99831.25
2019-05-26T04:24:55.472Z,99829.50
2019-05-26T04:27:23.575Z,99829.50
2019-05-26T04:29:53.117Z,99826.08
2019-05-26T04:32:39.519Z,99821.44
2019-05-26T04:35:07.335Z,99821.44
2019-05-26T04:37:53.782Z,99818.94
2019-05-26T04:40:27.017Z,99818.94
2019-05-26T04:42:50.889Z,99818.43
2019-05-26T04:45:37.309Z,99816.51
2019-05-26T04:50:38.241Z,99808.41
2019-05-26T04:53:25.105Z,99819.06
2019-05-26T04:56:11.831Z,99811.37
2019-05-26T04:58:39.627Z,99811.37
2019-05-26T05:01:26.267Z,99810.11
2019-05-26T05:04:12.715Z,99805.55
2019-05-26T05:06:40.384Z,99808.66
2019-05-26T05:09:08.057Z,99798.55
2019-05-26T05:11:36.156Z,99793.77
2019-05-26T05:14:03.895Z,99793.77
2019-05-26T05:16:31.621Z,99789.80
2019-05-26T05:22:23.229Z,99792.52
2019-05-26T05:24:50.870Z,99789.98
2019-05-26T05:27:37.635Z,99796.32
2019-05-26T05:32:53.374Z,99799.03
2019-05-26T05:35:39.832Z,99782.55
2019-05-26T05:38:07.438Z,99782.55
2019-05-26T05:40:35.144Z,99787.51
2019-05-26T05:46:08.311Z,99781.77
2019-05-26T05:48:52.247Z,99779.48
2019-05-26T05:51:07.445Z,99779.48
2019-05-26T05:53:54.181Z,99780.42
2019-05-26T05:56:22.292Z,99780.42
2019-05-26T05:58:49.869Z,99774.70
2019-05-26T06:01:36.612Z,99776.14
2019-05-26T06:04:23.004Z,99776.78
2019-05-26T06:07:09.461Z,99776.78
2019-05-26T06:10:07.709Z,99775.39
2019-05-26T06:15:32.141Z,99768.76
2019-05-26T06:18:18.497Z,99768.76
2019-05-26T06:21:04.973Z,99771.58
2019-05-26T06:23:51.532Z,99771.58
2019-05-26T06:26:19.226Z,99772.37
2019-05-26T06:28:46.861Z,99766.08
2019-05-26T06:31:33.285Z,99766.08
2019-05-26T06:39:39.314Z,99767.10
2019-05-26T06:42:25.664Z,99767.10
2019-05-26T06:47:27.871Z,99760.17
2019-05-26T06:50:14.243Z,99761.92
2019-05-26T06:52:42.034Z,99761.92
2019-05-26T06:55:09.625Z,99757.96
2019-05-26T06:57:56.114Z,99757.96
2019-05-26T07:00:25.614Z,99756.98
2019-05-26T07:03:12.060Z,99763.09
2019-05-26T07:05:42.737Z,99763.09
2019-05-26T07:08:10.466Z,99758.08
2019-05-26T07:10:56.851Z,99752.34
2019-05-26T07:13:24.665Z,99754.72
2019-05-26T07:16:13.630Z,99750.05
2019-05-26T07:18:41.513Z,99750.05
2019-05-26T07:21:28.916Z,99757.82
2019-05-26T07:23:56.584Z,99751.10
2019-05-26T07:26:51.163Z,99755.15
2019-05-26T07:29:18.772Z,99755.48
2019-05-26T07:32:05.218Z,99750.13
2019-05-26T07:34:33.000Z,99750.13
2019-05-26T07:37:00.767Z,99752.73
2019-05-26T07:39:47.166Z,99752.73
2019-05-26T07:45:06.875Z,99754.35
2019-05-26T07:47:36.986Z,99759.38
2019-05-26T07:50:23.396Z,99756.72
2019-05-26T07:53:09.844Z,99760.43
2019-05-26T07:55:56.218Z,99760.43
2019-05-26T07:58:42.662Z,99752.34
2019-05-26T08:01:41.201Z,99752.34
2019-05-26T08:03:58.457Z,99749.09
2019-05-26T08:06:44.828Z,99756.00
2019-05-26T08:09:13.066Z,99756.00
2019-05-26T08:11:59.476Z,99752.07
2019-05-26T08:14:27.100Z,99752.07
2019-05-26T08:17:13.470Z,99751.83
2019-05-26T08:19:41.203Z,99745.03
2019-05-26T08:22:29.763Z,99753.55
2019-05-26T08:24:57.428Z,99751.47
2019-05-26T08:27:43.891Z,99751.78
2019-05-26T08:30:11.497Z,99747.67
2019-05-26T08:33:10.088Z,99743.88
2019-05-26T08:38:51.135Z,99734.67
2019-05-26T08:44:36.802Z,99725.67
2019-05-26T08:47:13.575Z,99725.67
2019-05-26T08:50:00.008Z,99724.44
2019-05-26T08:52:29.361Z,99716.11
2019-05-26T09:00:55.110Z,99703.06
2019-05-26T09:06:29.766Z,99707.22
2019-05-26T09:08:57.380Z,99706.72
2019-05-26T09:11:43.862Z,99702.41
2019-05-26T09:17:18.260Z,99706.45
2019-05-26T09:19:45.919Z,99697.45
2019-05-26T09:22:32.363Z,99687.80
2019-05-26T09:25:11.771Z,99687.80
2019-05-26T09:27:48.181Z,99692.17
2019-05-26T09:30:15.799Z,99694.47
2019-05-26T09:33:02.255Z,99680.59
2019-05-26T09:35:30.003Z,99675.95
2019-05-26T09:38:16.409Z,99671.52
2019-05-26T09:40:44.109Z,99667.64
2019-05-26T09:43:30.534Z,99667.64
2019-05-26T09:49:03.377Z,99669.62
2019-05-26T09:51:31.158Z,99667.48
2019-05-26T09:54:20.288Z,99671.33
2019-05-26T09:56:47.976Z,99673.44
2019-05-26T09:59:34.446Z,99668.84
2019-05-26T10:02:02.063Z,99666.25
2019-05-26T10:04:31.904Z,99667.74
2019-05-26T10:06:59.668Z,99671.69
2019-05-26T10:09:27.319Z,99674.42
2019-05-26T10:11:55.349Z,99672.14
2019-05-26T10:14:22.904Z,99672.14
2019-05-26T10:16:50.553Z,99666.19
2019-05-26T10:19:18.484Z,99670.06
2019-05-26T10:21:48.155Z,99673.25
2019-05-26T10:24:15.812Z,99673.38
2019-05-26T10:26:50.910Z,99672.84
2019-05-26T10:29:20.800Z,99667.77
2019-05-26T10:31:48.395Z,99673.33
2019-05-26T10:34:17.593Z,99667.52
2019-05-26T10:36:45.175Z,99671.14
2019-05-26T10:39:17.057Z,99671.14
2019-05-26T10:41:42.535Z,99669.47
2019-05-26T10:44:10.200Z,99665.37
2019-05-26T10:46:40.751Z,99665.37
2019-05-26T10:49:08.851Z,99665.19
2019-05-26T10:51:36.431Z,99671.34
2019-05-26T10:54:11.163Z,99669.91
2019-05-26T10:56:39.082Z,99665.73
2019-05-26T10:59:07.060Z,99664.33
2019-05-26T11:01:40.440Z,99664.20
2019-05-26T11:04:08.424Z,99664.20
2019-05-26T11:06:36.075Z,99668.63
2019-05-26T11:09:06.551Z,99668.63
2019-05-26T11:11:40.680Z,99663.80
2019-05-26T11:14:11.049Z,99664.96
2019-05-26T11:16:48.824Z,99664.64
2019-05-26T11:19:18.456Z,99663.61
2019-05-26T11:21:46.037Z,99662.89
2019-05-26T11:24:13.885Z,99654.06
2019-05-26T11:26:41.594Z,99654.06
2019-05-26T11:29:14.981Z,99650.19
2019-05-26T11:31:44.380Z,99647.92
2019-05-26T11:34:12.242Z,99640.08
2019-05-26T11:36:41.008Z,99640.08
2019-05-26T11:39:11.879Z,99638.41
2019-05-26T11:41:39.948Z,99638.41
2019-05-26T11:44:17.498Z,99644.13
2019-05-26T11:46:37.239Z,99644.13
2019-05-26T11:49:07.114Z,99631.82
2019-05-26T11:51:34.749Z,99626.25
2019-05-26T11:54:05.152Z,99626.25
2019-05-26T11:56:34.409Z,99622.63
2019-05-26T11:59:02.149Z,99622.63
2019-05-26T12:01:29.769Z,99616.74
2019-05-26T12:04:01.329Z,99621.88
2019-05-26T12:06:29.626Z,99618.42
2019-05-26T12:08:57.234Z,99618.42
2019-05-26T12:11:27.875Z,99614.70
2019-05-26T12:13:58.534Z,99606.11
2019-05-26T12:16:28.841Z,99608.34
2019-05-26T12:18:55.373Z,99601.52
2019-05-26T12:21:27.427Z,99606.11
2019-05-26T12:23:57.048Z,99603.31
2019-05-26T12:26:24.407Z,99596.48
2019-05-26T12:28:52.464Z,99590.06
2019-05-26T12:31:20.439Z,99590.06
2019-05-26T12:33:48.045Z,99584.77
2019-05-26T12:36:15.922Z,99584.77
2019-05-26T12:38:52.681Z,99573.42
2019-05-26T12:41:20.241Z,99569.62
2019-05-26T12:43:48.362Z,99574.69
2019-05-26T12:46:20.334Z,99576.87
2019-05-26T12:48:48.294Z,99576.87
2019-05-26T12:51:19.729Z,99578.73
2019-05-26T12:53:49.267Z,99578.73
2019-05-26T12:56:16.840Z,99567.61
2019-05-26T12:58:46.405Z,99570.59
2019-05-26T13:01:17.027Z,99572.68
2019-05-26T13:03:44.656Z,99568.69
2019-05-26T13:06:17.541Z,99568.57
2019-05-26T13:08:44.006Z,99571.09
2019-05-26T13:11:11.641Z,99569.23
2019-05-26T13:13:42.702Z,99567.88
2019-05-26T13:16:17.873Z,99561.88
2019-05-26T13:18:45.432Z,99558.45
2019-05-26T13:21:13.568Z,99559.95
2019-05-26T13:23:41.255Z,99555.78
2019-05-26T13:26:11.653Z,99557.77
2019-05-26T13:28:39.673Z,99554.83
2019-05-26T13:31:07.323Z,99549.73
2019-05-26T13:33:35.179Z,99555.66
2019-05-26T13:36:06.374Z,99539.98
2019-05-26T13:38:35.028Z,99536.95
2019-05-26T13:41:04.677Z,99543.11
2019-05-26T13:43:34.526Z,99538.94
2019-05-26T13:46:02.467Z,99537.69
2019-05-26T13:48:32.024Z,99536.67
2019-05-26T13:51:00.398Z,99538.66
2019-05-26T13:53:27.973Z,99538.66
2019-05-26T13:55:55.683Z,99541.37
2019-05-26T14:00:53.308Z,99536.27
2019-05-26T14:03:24.102Z,99536.27
2019-05-26T14:05:55.636Z,99528.33
2019-05-26T14:08:23.228Z,99522.46
2019-05-26T14:10:51.291Z,99522.27
2019-05-26T14:13:19.168Z,99517.14
2019-05-26T14:15:49.230Z,99518.27
2019-05-26T14:18:18.226Z,99509.67
2019-05-26T14:20:49.419Z,99509.67
2019-05-26T14:23:25.919Z,99512.92
2019-05-26T14:26:01.315Z,99507.16
2019-05-26T14:28:33.766Z,99501.48
2019-05-26T14:31:01.499Z,99489.06
2019-05-26T14:33:30.968Z,99493.24
2019-05-26T14:36:03.192Z,99490.73
2019-05-26T14:38:42.845Z,99495.76
2019-05-26T14:41:00.053Z,99485.14
2019-05-26T14:43:29.380Z,99485.50
2019-05-26T14:45:56.916Z,99485.50
2019-05-26T14:48:24.603Z,99479.25
2019-05-26T14:50:54.140Z,99470.55
2019-05-26T14:53:24.804Z,99478.65
2019-05-26T14:55:53.650Z,99474.72
2019-05-26T14:58:21.681Z,99478.25
2019-05-26T15:00:55.151Z,99476.16
2019-05-26T15:03:22.807Z,99469.55
2019-05-26T15:06:05.562Z,99469.55
2019-05-26T15:08:24.368Z,99478.34
2019-05-26T15:10:51.969Z,99466.02
2019-05-26T15:13:23.813Z,99459.52
2019-05-26T15:16:08.391Z,99456.61
2019-05-26T15:18:23.613Z,99465.47
2019-05-26T15:20:51.583Z,99460.27
2019-05-26T15:23:19.200Z,99455.91
2019-05-26T15:25:46.775Z,99445.30
2019-05-26T15:28:17.244Z,99445.30
2019-05-26T15:30:47.337Z,99449.97
2019-05-26T15:33:15.061Z,99449.97
2019-05-26T15:35:45.077Z,99458.45
2019-05-26T15:38:18.250Z,99453.31
2019-05-26T15:40:59.067Z,99449.34
2019-05-26T15:43:27.561Z,99447.48
2019-05-26T15:45:55.108Z,99441.83
2019-05-26T15:48:22.677Z,99441.28
2019-05-26T15:50:50.675Z,99443.80
2019-05-26T15:53:21.224Z,99435.44
2019-05-26T15:55:49.676Z,99429.09
2019-05-26T15:58:19.927Z,99431.69
2019-05-26T16:00:47.677Z,99430.02
2019-05-26T16:03:15.267Z,99432.08
2019-05-26T16:05:43.334Z,99426.81
2019-05-26T16:08:10.917Z,99426.81
2019-05-26T16:10:38.599Z,99423.13
2019-05-26T16:13:06.733Z,99423.13
2019-05-26T16:15:34.310Z,99421.88
2019-05-26T16:18:02.108Z,99420.17
2019-05-26T16:20:31.905Z,99417.14
2019-05-26T16:23:00.632Z,99413.27
2019-05-26T16:25:31.278Z,99413.27
2019-05-26T16:27:59.307Z,99415.73
2019-05-26T16:30:26.978Z,99415.73
2019-05-26T16:32:54.631Z,99412.09
2019-05-26T16:35:22.716Z,99407.28
2019-05-26T16:37:54.611Z,99400.27
2019-05-26T16:40:25.072Z,99400.27
2019-05-26T16:42:59.598Z,99395.15
2019-05-26T16:45:27.235Z,99397.73
2019-05-26T16:47:54.795Z,99393.23
2019-05-26T16:50:25.458Z,99393.23
2019-05-26T16:52:57.679Z,99390.41
2019-05-26T16:55:25.646Z,99385.19
2019-05-26T16:57:53.642Z,99382.70
2019-05-26T17:00:21.257Z,99380.19
2019-05-26T17:02:48.892Z,99382.70
2019-05-26T17:05:16.860Z,99383.94
2019-05-26T17:07:44.462Z,99381.58
2019-05-26T17:10:12.127Z,99383.53
2019-05-26T17:12:45.425Z,99381.75
2019-05-26T17:15:15.840Z,99378.92
2019-05-26T17:17:43.504Z,99376.31
2019-05-26T17:20:22.583Z,99373.45
2019-05-26T17:22:49.948Z,99373.45
2019-05-26T17:25:20.008Z,99376.77
2019-05-26T17:27:49.185Z,99379.22
2019-05-26T17:30:22.117Z,99375.77
2019-05-26T17:32:48.600Z,99375.32
2019-05-26T17:35:19.418Z,99372.58
2019-05-26T17:37:55.153Z,99372.58
2019-05-26T17:40:21.168Z,99372.45
2019-05-26T17:42:52.107Z,99370.41
2019-05-26T17:45:25.700Z,99370.41
2019-05-26T17:47:54.633Z,99369.78
2019-05-26T17:50:22.290Z,99372.55
2019-05-26T17:52:51.106Z,99370.44
2019-05-26T17:55:24.155Z,99373.73
2019-05-26T17:57:56.083Z,99367.06
2019-05-26T18:00:46.184Z,99359.86
2019-05-26T18:03:03.250Z,99358.09
2019-05-26T18:05:30.827Z,99358.09
2019-05-26T18:08:01.451Z,99355.25
2019-05-26T18:10:38.035Z,99355.03
2019-05-26T18:13:06.012Z,99355.03
2019-05-26T18:15:36.818Z,99352.19
2019-05-26T18:18:04.463Z,99344.45
2019-05-26T18:20:36.242Z,99344.45
2019-05-26T18:23:27.275Z,99346.02
2019-05-26T18:25:42.601Z,99340.09
2019-05-26T18:28:10.431Z,99339.27
2019-05-26T18:30:40.109Z,99334.05
2019-05-26T18:33:10.273Z,99325.68
2019-05-26T18:35:41.412Z,99336.39
2019-05-26T18:38:14.924Z,99336.39
2019-05-26T18:40:44.267Z,99333.56
2019-05-26T18:43:18.877Z,99330.00
2019-05-26T18:45:49.427Z,99322.62
2019-05-26T18:48:16.986Z,99319.59
2019-05-26T18:50:46.960Z,99323.52
2019-05-26T18:53:15.108Z,99323.52
2019-05-26T18:55:44.431Z,99314.44
2019-05-26T18:58:12.034Z,99317.86
2019-05-26T19:00:42.511Z,99327.08
2019-05-26T19:03:12.117Z,99327.08
2019-05-26T19:05:40.994Z,99321.54
2019-05-26T19:08:20.645Z,99316.51
2019-05-26T19:10:52.469Z,99321.59
2019-05-26T19:13:32.662Z,99317.63
2019-05-26T19:16:00.273Z,99313.13
2019-05-26T19:18:29.848Z,99314.34
2019-05-26T19:20:57.920Z,99304.25
2019-05-26T19:23:25.549Z,99300.56
2019-05-26T19:25:53.463Z,99306.55
2019-05-26T19:28:21.458Z,99304.75
2019-05-26T19:30:51.932Z,99307.71
2019-05-26T19:33:19.574Z,99304.20
2019-05-26T19:35:47.215Z,99303.60
2019-05-26T19:38:14.760Z,99305.07
2019-05-26T19:41:15.360Z,99305.07
2019-05-26T19:43:30.508Z,99314.63
2019-05-26T19:46:16.926Z,99311.73
2019-05-26T19:48:44.769Z,99308.61
2019-05-26T19:51:31.187Z,99309.03
2019-05-26T19:56:58.060Z,99313.25
2019-05-26T19:59:40.176Z,99307.11
2019-05-26T20:02:18.801Z,99314.19
2019-05-26T20:04:45.689Z,99314.19
2019-05-26T20:07:32.147Z,99316.98
2019-05-26T20:09:59.812Z,99317.91
2019-05-26T20:12:46.196Z,99312.47
2019-05-26T20:15:13.898Z,99309.00
2019-05-26T20:17:41.601Z,99312.31
2019-05-26T20:20:28.028Z,99305.66
2019-05-26T20:22:55.757Z,99309.30
2019-05-26T20:25:23.478Z,99309.30
2019-05-26T20:27:52.956Z,99309.47
2019-05-26T20:30:23.399Z,99311.52
2019-05-26T20:32:51.324Z,99308.14
2019-05-26T20:35:38.052Z,99319.44
2019-05-26T20:38:05.730Z,99310.36
2019-05-26T20:40:52.220Z,99299.96
2019-05-26T20:46:25.225Z,99308.11
2019-05-26T20:52:07.147Z,99301.75
2019-05-26T20:55:18.932Z,99306.64
2019-05-26T20:57:25.378Z,99306.64
2019-05-26T20:59:53.246Z,99305.25
2019-05-26T21:02:21.315Z,99301.88
2019-05-26T21:04:49.587Z,99290.23
2019-05-26T21:07:35.942Z,99295.92
2019-05-26T21:10:22.401Z,99292.52
2019-05-26T21:13:08.788Z,99292.52
2019-05-26T21:15:36.559Z,99292.30
2019-05-26T21:18:04.318Z,99289.44
2019-05-26T21:23:06.328Z,99293.95
2019-05-26T21:25:52.749Z,99288.19
2019-05-26T21:31:37.830Z,99283.80
2019-05-26T21:33:55.336Z,99283.80
2019-05-26T21:39:28.230Z,99290.69
2019-05-26T21:41:57.829Z,99287.47
2019-05-26T21:44:43.948Z,99280.58
2019-05-26T21:47:24.053Z,99277.56
2019-05-26T21:49:41.629Z,99276.77
2019-05-26T21:52:22.699Z,99276.77
2019-05-26T21:54:41.330Z,99279.14
2019-05-26T21:57:11.970Z,99279.14
2019-05-26T22:02:32.459Z,99265.44
2019-05-26T22:05:00.252Z,99272.16
2019-05-26T22:07:27.896Z,99272.16
2019-05-26T22:09:56.040Z,99264.11
2019-05-26T22:12:23.642Z,99257.75
2019-05-26T22:14:51.768Z,99264.02
2019-05-26T22:17:19.330Z,99254.97
2019-05-26T22:19:47.051Z,99256.15
2019-05-26T22:22:17.242Z,99256.15
2019-05-26T22:25:03.604Z,99251.05
2019-05-26T22:30:23.677Z,99254.98
2019-05-26T22:39:02.920Z,99248.25
2019-05-26T22:41:49.285Z,99241.04
2019-05-26T22:44:19.241Z,99239.05
2019-05-26T22:46:54.078Z,99239.05
2019-05-26T22:49:24.086Z,99242.08
2019-05-26T22:52:12.429Z,99242.81
2019-05-26T22:54:40.091Z,99242.81
2019-05-26T22:57:07.767Z,99231.58
2019-05-26T22:59:37.162Z,99231.58
2019-05-26T23:04:51.314Z,99236.42
2019-05-26T23:07:30.699Z,99225.83
2019-05-26T23:12:40.408Z,99222.44
2019-05-26T23:15:27.167Z,99223.94
2019-05-26T23:18:13.837Z,99227.81
2019-05-26T23:21:00.259Z,99229.32
2019-05-26T23:23:28.015Z,99229.32
2019-05-26T23:26:14.427Z,99226.31
2019-05-26T23:28:42.087Z,99225.45
2019-05-26T23:31:43.316Z,99216.73
2019-05-26T23:33:58.283Z,99221.30
2019-05-26T23:36:26.457Z,99213.25
2019-05-26T23:39:13.127Z,99209.92
2019-05-26T23:41:59.567Z,99210.45
2019-05-26T23:44:27.212Z,99210.45
2019-05-26T23:46:57.741Z,99212.55
2019-05-26T23:49:25.508Z,99212.55
2019-05-26T23:51:53.280Z,99206.69
2019-05-26T23:54:40.001Z,99211.06
2019-05-26T23:57:07.556Z,99211.06
2019-05-26T23:59:35.255Z,99220.02
